Lynnville, Iowa
Current Conditions -  °F | °C
As of 10:15 PM on Monday 22 Dec 2014 (Local Time) from KGGI Reporting Station
Light Rain Light Rain  
Wind Chill: 33°   Ceiling: 200
Heat Index: 38°   Visibility: 4mi
Dew Point: 37°   Wind: 6mph
Humidity: 98%   Direction: 80°E
Pressure: 29.46"   Gusts: NA
Location:  41.58°N, 92.78°W
Report Text: KGGI 230415Z AUTO 08005KT 4SM -RA OVC002 03/03 A2946 RMK AO2 T00310028
Loading
Personal Weather Stations






























Interactive Weather Map New forecast layout! Learn more

10-Day Weather Forecast

Advertisements
Track Severe Weather on mobile